OAW225 EDLW-EDDS
Flight info
| Callsign | OAW225 |
|---|---|
| Flight time | N/A |
| Altitude | 23000 |
| Route | GMH8Q GMH Z841 BIGSU L603 BOMBI N850 RINEX Z818 UBEGA/N0321F110 Z818 ETASA DCT NOSBU T726 LBU |
| Aircraft | E190/M-SDE3GILORVW/S |
Departure
| Time | 2026-04-29 15:05 |
|---|---|
| Airport | Dortmund Airport (EDLW) |
Arrival
| Time | N/A |
|---|---|
| Airport | Stuttgart Airport (EDDS) |
| Time | Latitude | Longitude | Altitude | Speed | Heading |
|---|---|---|---|---|---|
| 2026-04-29 14:41 | 51.51469 | 7.61125 | 425 ft | 0 kts | 145° |
| 2026-04-29 14:57 | 51.51476 | 7.61118 | 417 ft | 4 kts | 145° |
| 2026-04-29 14:57 | 51.51494 | 7.61097 | 424 ft | 4 kts | 139° |
| 2026-04-29 14:58 | 51.51508 | 7.61066 | 419 ft | 4 kts | 89° |
| 2026-04-29 14:58 | 51.51501 | 7.61026 | 421 ft | 4 kts | 60° |
| 2026-04-29 14:58 | 51.51494 | 7.61005 | 425 ft | 1 kts | 60° |
| 2026-04-29 15:01 | 51.51494 | 7.61007 | 433 ft | 1 kts | 60° |
| 2026-04-29 15:01 | 51.51502 | 7.61028 | 430 ft | 4 kts | 60° |
| 2026-04-29 15:01 | 51.51535 | 7.61060 | 420 ft | 8 kts | 1° |
| 2026-04-29 15:01 | 51.51562 | 7.60970 | 423 ft | 12 kts | 248° |
| 2026-04-29 15:02 | 51.51520 | 7.60847 | 416 ft | 14 kts | 240° |
| 2026-04-29 15:02 | 51.51466 | 7.60696 | 421 ft | 17 kts | 240° |
| 2026-04-29 15:02 | 51.51407 | 7.60528 | 421 ft | 18 kts | 240° |
| 2026-04-29 15:02 | 51.51360 | 7.60352 | 424 ft | 12 kts | 274° |
| 2026-04-29 15:03 | 51.51422 | 7.60249 | 423 ft | 15 kts | 333° |
| 2026-04-29 15:03 | 51.51499 | 7.60277 | 416 ft | 10 kts | 60° |
| 2026-04-29 15:03 | 51.51503 | 7.60288 | 418 ft | 1 kts | 62° |
| 2026-04-29 15:03 | 51.51503 | 7.60289 | 419 ft | 0 kts | 62° |
| 2026-04-29 15:04 | 51.51518 | 7.60334 | 419 ft | 24 kts | 61° |
| 2026-04-29 15:04 | 51.51737 | 7.60952 | 419 ft | 101 kts | 60° |
| 2026-04-29 15:04 | 51.52198 | 7.62244 | 566 ft | 155 kts | 60° |
| 2026-04-29 15:05 | 51.52765 | 7.63798 | 1384 ft | 171 kts | 62° |
| 2026-04-29 15:05 | 51.53405 | 7.65508 | 2174 ft | 186 kts | 62° |
| 2026-04-29 15:05 | 51.54070 | 7.67448 | 2806 ft | 212 kts | 63° |
| 2026-04-29 15:05 | 51.54781 | 7.69562 | 3717 ft | 221 kts | 63° |
| 2026-04-29 15:06 | 51.55559 | 7.71818 | 4499 ft | 236 kts | 63° |
| 2026-04-29 15:06 | 51.56176 | 7.74332 | 4944 ft | 245 kts | 84° |
| 2026-04-29 15:06 | 51.55975 | 7.77056 | 5247 ft | 259 kts | 111° |
| 2026-04-29 15:06 | 51.54948 | 7.79386 | 6373 ft | 257 kts | 132° |
| 2026-04-29 15:07 | 51.53451 | 7.80996 | 7318 ft | 267 kts | 154° |
| 2026-04-29 15:07 | 51.51593 | 7.81620 | 8120 ft | 278 kts | 170° |
| 2026-04-29 15:07 | 51.49628 | 7.81626 | 8824 ft | 291 kts | 189° |
| 2026-04-29 15:07 | 51.47788 | 7.80170 | 9532 ft | 303 kts | 220° |
| 2026-04-29 15:08 | 51.46248 | 7.77817 | 10366 ft | 307 kts | 223° |
| 2026-04-29 15:08 | 51.44583 | 7.75537 | 10811 ft | 325 kts | 214° |
| 2026-04-29 15:08 | 51.42470 | 7.74072 | 11163 ft | 341 kts | 187° |
| 2026-04-29 15:08 | 51.40081 | 7.74263 | 11579 ft | 350 kts | 162° |
| 2026-04-29 15:09 | 51.37793 | 7.75641 | 12318 ft | 353 kts | 152° |
| 2026-04-29 15:09 | 51.35545 | 7.77266 | 13183 ft | 357 kts | 153° |
| 2026-04-29 15:09 | 51.33235 | 7.78820 | 14077 ft | 363 kts | 154° |
| 2026-04-29 15:09 | 51.30873 | 7.80336 | 14928 ft | 368 kts | 155° |
| 2026-04-29 15:10 | 51.28477 | 7.81860 | 15759 ft | 374 kts | 155° |
| 2026-04-29 15:10 | 51.26047 | 7.83423 | 16546 ft | 380 kts | 155° |
| 2026-04-29 15:10 | 51.23588 | 7.85026 | 17350 ft | 384 kts | 154° |
| 2026-04-29 15:10 | 51.21099 | 7.86673 | 18092 ft | 391 kts | 154° |
| 2026-04-29 15:11 | 51.18574 | 7.88363 | 18837 ft | 396 kts | 154° |
| 2026-04-29 15:11 | 51.16160 | 7.90445 | 19545 ft | 394 kts | 143° |
| 2026-04-29 15:11 | 51.13927 | 7.92988 | 20292 ft | 395 kts | 139° |
| 2026-04-29 15:11 | 51.11718 | 7.95620 | 20996 ft | 398 kts | 139° |
| 2026-04-29 15:12 | 51.09527 | 7.98249 | 21647 ft | 401 kts | 138° |
| 2026-04-29 15:12 | 51.08030 | 8.00077 | 22074 ft | 403 kts | 138° |
| 2026-04-29 15:12 | 51.05059 | 8.03668 | 22876 ft | 408 kts | 138° |
| 2026-04-29 15:12 | 51.02790 | 8.06387 | 23450 ft | 408 kts | 138° |
| 2026-04-29 15:13 | 51.00550 | 8.09057 | 23356 ft | 397 kts | 138° |
| 2026-04-29 15:13 | 50.98354 | 8.11668 | 23329 ft | 392 kts | 138° |
| 2026-04-29 15:13 | 50.96180 | 8.14256 | 23317 ft | 390 kts | 137° |
| 2026-04-29 15:13 | 50.94012 | 8.16834 | 23326 ft | 390 kts | 137° |
| 2026-04-29 15:14 | 50.91841 | 8.19411 | 23308 ft | 390 kts | 138° |
| 2026-04-29 15:14 | 50.89671 | 8.21981 | 23310 ft | 390 kts | 138° |
| 2026-04-29 15:14 | 50.87501 | 8.24552 | 23307 ft | 390 kts | 138° |
| 2026-04-29 15:14 | 50.85328 | 8.27117 | 23303 ft | 390 kts | 139° |
| 2026-04-29 15:15 | 50.83011 | 8.29394 | 23342 ft | 394 kts | 145° |
| 2026-04-29 15:15 | 50.80602 | 8.31489 | 23355 ft | 395 kts | 147° |
| 2026-04-29 15:15 | 50.78178 | 8.33546 | 23319 ft | 396 kts | 147° |
| 2026-04-29 15:15 | 50.75757 | 8.35605 | 23298 ft | 395 kts | 146° |
| 2026-04-29 15:16 | 50.73342 | 8.37663 | 23300 ft | 394 kts | 146° |
| 2026-04-29 15:16 | 50.70925 | 8.39728 | 23302 ft | 394 kts | 146° |
| 2026-04-29 15:16 | 50.68514 | 8.41785 | 23308 ft | 395 kts | 147° |
| 2026-04-29 15:16 | 50.66084 | 8.43836 | 23299 ft | 397 kts | 147° |
| 2026-04-29 15:17 | 50.63650 | 8.45883 | 23302 ft | 397 kts | 146° |
| 2026-04-29 15:17 | 50.61218 | 8.47930 | 23309 ft | 396 kts | 146° |
| 2026-04-29 15:17 | 50.58785 | 8.49977 | 23315 ft | 397 kts | 147° |
| 2026-04-29 15:17 | 50.57143 | 8.51358 | 23316 ft | 397 kts | 147° |
| 2026-04-29 15:18 | 50.53915 | 8.54068 | 23315 ft | 397 kts | 147° |
| 2026-04-29 15:18 | 50.51478 | 8.56113 | 23316 ft | 397 kts | 147° |
| 2026-04-29 15:18 | 50.49039 | 8.58156 | 23310 ft | 397 kts | 147° |
| 2026-04-29 15:18 | 50.46605 | 8.60191 | 23298 ft | 397 kts | 147° |
| 2026-04-29 15:19 | 50.44110 | 8.62082 | 23303 ft | 401 kts | 154° |
| 2026-04-29 15:19 | 50.41459 | 8.63485 | 23317 ft | 404 kts | 158° |
| 2026-04-29 15:19 | 50.38759 | 8.64731 | 23294 ft | 404 kts | 159° |
| 2026-04-29 15:19 | 50.36063 | 8.65968 | 23284 ft | 403 kts | 159° |
| 2026-04-29 15:20 | 50.33373 | 8.67217 | 23278 ft | 404 kts | 159° |
| 2026-04-29 15:20 | 50.30687 | 8.68475 | 23277 ft | 403 kts | 159° |
| 2026-04-29 15:20 | 50.28003 | 8.69737 | 23277 ft | 402 kts | 159° |
| 2026-04-29 15:20 | 50.25323 | 8.70995 | 23277 ft | 403 kts | 159° |
| 2026-04-29 15:21 | 50.23547 | 8.71831 | 23271 ft | 403 kts | 159° |
| 2026-04-29 15:21 | 50.20865 | 8.73091 | 23273 ft | 403 kts | 159° |
| 2026-04-29 15:21 | 50.18179 | 8.74351 | 23273 ft | 403 kts | 159° |
| 2026-04-29 15:21 | 50.15495 | 8.75607 | 23268 ft | 403 kts | 159° |
| 2026-04-29 15:22 | 50.12812 | 8.76863 | 23272 ft | 403 kts | 159° |
| 2026-04-29 15:22 | 50.10128 | 8.78120 | 23264 ft | 403 kts | 159° |
| 2026-04-29 15:22 | 50.07434 | 8.79332 | 23271 ft | 404 kts | 163° |
| 2026-04-29 15:22 | 50.04621 | 8.79750 | 23276 ft | 411 kts | 181° |
| 2026-04-29 15:23 | 50.01787 | 8.79039 | 23286 ft | 414 kts | 190° |
| 2026-04-29 15:23 | 49.98980 | 8.77994 | 23271 ft | 415 kts | 192° |
| 2026-04-29 15:23 | 49.96176 | 8.76943 | 23270 ft | 414 kts | 191° |
| 2026-04-29 15:23 | 49.93367 | 8.75931 | 23265 ft | 414 kts | 191° |
| 2026-04-29 15:24 | 49.90558 | 8.74943 | 23260 ft | 414 kts | 191° |
| 2026-04-29 15:24 | 49.87745 | 8.73964 | 23258 ft | 414 kts | 190° |
| 2026-04-29 15:24 | 49.84935 | 8.72994 | 23249 ft | 413 kts | 191° |
| 2026-04-29 15:24 | 49.82135 | 8.72028 | 23248 ft | 412 kts | 191° |
| 2026-04-29 15:25 | 49.79341 | 8.71064 | 23254 ft | 412 kts | 190° |
| 2026-04-29 15:25 | 49.76542 | 8.70102 | 23246 ft | 413 kts | 190° |
| 2026-04-29 15:25 | 49.73737 | 8.69183 | 23255 ft | 411 kts | 187° |
| 2026-04-29 15:25 | 49.70902 | 8.68634 | 23250 ft | 410 kts | 182° |
| 2026-04-29 15:26 | 49.68054 | 8.68267 | 23236 ft | 410 kts | 182° |
| 2026-04-29 15:26 | 49.65210 | 8.67911 | 23240 ft | 410 kts | 182° |
| 2026-04-29 15:26 | 49.62368 | 8.67536 | 23240 ft | 410 kts | 182° |
| 2026-04-29 15:26 | 49.59528 | 8.67146 | 23233 ft | 410 kts | 182° |
| 2026-04-29 15:27 | 49.56690 | 8.66755 | 23247 ft | 410 kts | 183° |
| 2026-04-29 15:27 | 49.53851 | 8.66364 | 23239 ft | 409 kts | 182° |
| 2026-04-29 15:27 | 49.51017 | 8.65974 | 23237 ft | 410 kts | 182° |
| 2026-04-29 15:27 | 49.48179 | 8.65581 | 23241 ft | 409 kts | 182° |
| 2026-04-29 15:28 | 49.45338 | 8.65189 | 23237 ft | 409 kts | 182° |
| 2026-04-29 15:28 | 49.43462 | 8.64930 | 23240 ft | 409 kts | 182° |
| 2026-04-29 15:28 | 49.39678 | 8.64408 | 23239 ft | 406 kts | 182° |
| 2026-04-29 15:28 | 49.36866 | 8.64191 | 23239 ft | 403 kts | 174° |
| 2026-04-29 15:29 | 49.34148 | 8.65036 | 23240 ft | 396 kts | 154° |
| 2026-04-29 15:29 | 49.30055 | 8.70108 | 23253 ft | 378 kts | 120° |
| 2026-04-29 15:30 | 49.27232 | 8.76890 | 23228 ft | 377 kts | 117° |
| 2026-04-29 15:30 | 49.25829 | 8.80283 | 23219 ft | 377 kts | 118° |
| 2026-04-29 15:30 | 49.24401 | 8.83676 | 22910 ft | 380 kts | 118° |
| 2026-04-29 15:30 | 49.22961 | 8.87033 | 22701 ft | 376 kts | 118° |
| 2026-04-29 15:31 | 49.21522 | 8.90384 | 22163 ft | 379 kts | 119° |
| 2026-04-29 15:31 | 49.20194 | 8.93820 | 21632 ft | 371 kts | 109° |
| 2026-04-29 15:31 | 49.19529 | 8.97539 | 21154 ft | 357 kts | 92° |
| 2026-04-29 15:31 | 49.19384 | 9.01299 | 20670 ft | 353 kts | 88° |
| 2026-04-29 15:32 | 49.19307 | 9.05038 | 20206 ft | 351 kts | 88° |
| 2026-04-29 15:32 | 49.19220 | 9.08753 | 19748 ft | 349 kts | 89° |
| 2026-04-29 15:32 | 49.18875 | 9.12437 | 19142 ft | 357 kts | 103° |
| 2026-04-29 15:32 | 49.17800 | 9.15856 | 18752 ft | 356 kts | 117° |
| 2026-04-29 15:33 | 49.16464 | 9.19045 | 18223 ft | 356 kts | 120° |
| 2026-04-29 15:33 | 49.15102 | 9.22174 | 17792 ft | 352 kts | 120° |
| 2026-04-29 15:33 | 49.13758 | 9.25291 | 17329 ft | 351 kts | 120° |